עמוד ראשי
METAR-TAF:

METAR-TAF

שדות תעופה :

Kushiro, יפן

קו רוחב: 43-02N, קו אורך: 144-12E, גובה: 95מטר

תצפית מזג אוויר נוכחית

הדו"ח נערך לפני 22דקות, בשעה 10:43 UTC
רוח 2קשר מכיוון צפון/צפון-מערב
טמפרטורת 17 צלסיוס
לחות 100%
לחץ 1017 hPa
ראות: 0300מטר
ערפל

METAR: RJCK 141043Z 33002KT 0300 R17/0450V0800U FG VV001 17/17 Q1017 RMK A3005

זמן: 20:05 (11:05 UTC)

תחזית

הדו"ח נערך לפני 2 שעות ו 30דקות, בשעה 08:35 UTC
תחזית בתוקף מ 14 ב 08 UTC עד 15 ב 12 UTC
רוח 3קשר מכיוון מזרח/צפון-מזרח
ראות: 7000מטר
מעט עננים בגובה 300רגל
עננים בינוניים בגובה 1500רגל
זמנית מ -
14 ב 08 UTC עד 14 ב 15 UTC
ראות: 0700מטר
בגובה 100רגל
ערפל
זמנית מ -
14 ב 15 UTC עד 15 ב 00 UTC
ראות: 0500מטר
בגובה 100רגל
ערפל
יעשה מ
15 ב 00 UTC עד 15 ב 03 UTC
רוח 10קשר מכיוון דרום
זמנית מ -
15 ב 06 UTC עד 15 ב 12 UTC
מעט עננים בגובה 300רגל
עננים בינוניים בגובה 500רגל

TAF: RJCK 140835Z 1408/1512 07003KT 7000 FEW003 BKN015 TEMPO 1408/1415 0700 FG VV001 TEMPO 1415/1500 0500 FG VV001 BECMG 1500/1503 18010KT TEMPO 1506/1512 FEW003 BKN005

תצפיות ותחזיות מזג אוויר לגבי יותר מ- 4,000 שדות תעופה ברחבי העולם. דוחות METAR ו- TAF.

התחנות הזמינות מסומנות בנקודות צהובות ואדומות על גבי המפה.

העבר את העכבר לנקודה הצבעונית על מנת לראות את שם התחנה.

לאחר מכן, לחץ כדי לראות את תוכן ואת תחזיות מזג האוויר.

כדי לשנות את המפה: לחץ על הכפתורים הירוקים עם הפלוס השחור כדי להתקרב; על הכפתור הירוק עם המקף כדי להתרחק; או בחיצים הירוקים למפות סמוכות.


METAR-TAF: